sensor_id;sensor_type;location;lat;lon;timestamp;pressure;altitude;pressure_sealevel;temperature;humidity
4167;BME280;2097;51.104;7.150;2023-02-22T00:01:16;98711.97;;;4.14;100.00
4167;BME280;2097;51.104;7.150;2023-02-22T00:04:01;98629.03;;;3.63;100.00
4167;BME280;2097;51.104;7.150;2023-02-22T00:06:29;98606.44;;;3.48;100.00
4167;BME280;2097;51.104;7.150;2023-02-22T00:08:56;98657.47;;;3.56;100.00
4167;BME280;2097;51.104;7.150;2023-02-22T00:11:23;98752.66;;;4.26;100.00
4167;BME280;2097;51.104;7.150;2023-02-22T00:13:50;98733.91;;;4.24;100.00
4167;BME280;2097;51.104;7.150;2023-02-22T00:16:23;98636.72;;;3.63;100.00
4167;BME280;2097;51.104;7.150;2023-02-22T00:18:50;98544.25;;;3.16;100.00
4167;BME280;2097;51.104;7.150;2023-02-22T00:21:19;98651.50;;;3.81;100.00
4167;BME280;2097;51.104;7.150;2023-02-22T00:23:47;98634.78;;;3.70;100.00
4167;BME280;2097;51.104;7.150;2023-02-22T00:26:17;98729.66;;;4.23;100.00
4167;BME280;2097;51.104;7.150;2023-02-22T00:28:45;98726.09;;;4.27;100.00
4167;BME280;2097;51.104;7.150;2023-02-22T00:31:12;98625.44;;;3.67;100.00
4167;BME280;2097;51.104;7.150;2023-02-22T00:33:39;98337.84;;;1.81;100.00
4167;BME280;2097;51.104;7.150;2023-02-22T00:36:07;98717.44;;;4.30;100.00
4167;BME280;2097;51.104;7.150;2023-02-22T00:38:36;98639.47;;;3.83;100.00
4167;BME280;2097;51.104;7.150;2023-02-22T00:41:03;98716.50;;;4.32;100.00
4167;BME280;2097;51.104;7.150;2023-02-22T00:43:30;98717.06;;;4.40;100.00
4167;BME280;2097;51.104;7.150;2023-02-22T00:45:57;98706.47;;;4.49;100.00
4167;BME280;2097;51.104;7.150;2023-02-22T00:48:24;98575.59;;;3.76;100.00
4167;BME280;2097;51.104;7.150;2023-02-22T00:50:51;98710.41;;;4.59;100.00
4167;BME280;2097;51.104;7.150;2023-02-22T00:53:20;98695.72;;;4.62;100.00
4167;BME280;2097;51.104;7.150;2023-02-22T00:55:49;98508.03;;;3.51;100.00
4167;BME280;2097;51.104;7.150;2023-02-22T00:58:16;98607.69;;;4.12;100.00
4167;BME280;2097;51.104;7.150;2023-02-22T01:00:44;98697.97;;;4.71;100.00
4167;BME280;2097;51.104;7.150;2023-02-22T01:03:12;98697.25;;;4.68;100.00
4167;BME280;2097;51.104;7.150;2023-02-22T01:05:40;98692.25;;;4.63;100.00
4167;BME280;2097;51.104;7.150;2023-02-22T01:08:09;98612.53;;;4.19;100.00
4167;BME280;2097;51.104;7.150;2023-02-22T01:10:38;98689.63;;;4.65;100.00
4167;BME280;2097;51.104;7.150;2023-02-22T01:13:07;98690.44;;;4.67;100.00
4167;BME280;2097;51.104;7.150;2023-02-22T01:15:37;98700.63;;;4.68;100.00
4167;BME280;2097;51.104;7.150;2023-02-22T01:18:05;98535.44;;;3.73;100.00
4167;BME280;2097;51.104;7.150;2023-02-22T01:20:32;98676.72;;;4.66;100.00
4167;BME280;2097;51.104;7.150;2023-02-22T01:23:00;98656.94;;;4.46;100.00
4167;BME280;2097;51.104;7.150;2023-02-22T01:25:31;98676.78;;;4.65;100.00
4167;BME280;2097;51.104;7.150;2023-02-22T01:27:59;98677.56;;;4.67;100.00
4167;BME280;2097;51.104;7.150;2023-02-22T01:30:30;98675.78;;;4.69;100.00
4167;BME280;2097;51.104;7.150;2023-02-22T01:32:58;98667.91;;;4.73;100.00
4167;BME280;2097;51.104;7.150;2023-02-22T01:35:28;98671.19;;;4.77;100.00
4167;BME280;2097;51.104;7.150;2023-02-22T01:37:55;98663.38;;;4.80;100.00
4167;BME280;2097;51.104;7.150;2023-02-22T01:40:24;98470.97;;;3.59;100.00
4167;BME280;2097;51.104;7.150;2023-02-22T01:42:54;98609.81;;;4.47;100.00
4167;BME280;2097;51.104;7.150;2023-02-22T01:45:48;98651.66;;;4.73;100.00
4167;BME280;2097;51.104;7.150;2023-02-22T01:48:20;98654.97;;;4.75;100.00
4167;BME280;2097;51.104;7.150;2023-02-22T01:50:53;98650.81;;;4.72;100.00
4167;BME280;2097;51.104;7.150;2023-02-22T01:53:23;98663.66;;;4.72;100.00
4167;BME280;2097;51.104;7.150;2023-02-22T01:55:52;98649.91;;;4.73;100.00
4167;BME280;2097;51.104;7.150;2023-02-22T01:58:21;98625.66;;;4.57;100.00
4167;BME280;2097;51.104;7.150;2023-02-22T02:00:51;98644.84;;;4.72;100.00
4167;BME280;2097;51.104;7.150;2023-02-22T02:03:21;98539.28;;;4.09;100.00
4167;BME280;2097;51.104;7.150;2023-02-22T02:05:54;98652.47;;;4.73;100.00
4167;BME280;2097;51.104;7.150;2023-02-22T02:08:29;98587.69;;;4.43;100.00
4167;BME280;2097;51.104;7.150;2023-02-22T02:10:58;98636.94;;;4.76;100.00
4167;BME280;2097;51.104;7.150;2023-02-22T02:13:26;98644.69;;;4.75;100.00
4167;BME280;2097;51.104;7.150;2023-02-22T02:15:55;98671.38;;;4.72;100.00
4167;BME280;2097;51.104;7.150;2023-02-22T02:18:23;98606.19;;;4.52;100.00
4167;BME280;2097;51.104;7.150;2023-02-22T02:24:09;98633.59;;;4.74;100.00
4167;BME280;2097;51.104;7.150;2023-02-22T02:27:01;98636.09;;;4.76;100.00
4167;BME280;2097;51.104;7.150;2023-02-22T02:32:47;98628.47;;;4.74;100.00
4167;BME280;2097;51.104;7.150;2023-02-22T02:35:25;98397.41;;;3.37;100.00
4167;BME280;2097;51.104;7.150;2023-02-22T02:37:57;98632.75;;;4.74;100.00
4167;BME280;2097;51.104;7.150;2023-02-22T02:40:31;98535.38;;;4.22;100.00
4167;BME280;2097;51.104;7.150;2023-02-22T02:43:07;98614.03;;;4.70;100.00
4167;BME280;2097;51.104;7.150;2023-02-22T02:45:43;98532.16;;;4.17;100.00
4167;BME280;2097;51.104;7.150;2023-02-22T02:48:14;98322.75;;;2.99;100.00
4167;BME280;2097;51.104;7.150;2023-02-22T02:50:45;98212.59;;;2.28;100.00
4167;BME280;2097;51.104;7.150;2023-02-22T02:53:16;98612.44;;;4.68;100.00
4167;BME280;2097;51.104;7.150;2023-02-22T02:55:44;98604.84;;;4.65;100.00
4167;BME280;2097;51.104;7.150;2023-02-22T02:58:16;98478.09;;;3.76;100.00
4167;BME280;2097;51.104;7.150;2023-02-22T03:00:44;98529.41;;;4.22;100.00
4167;BME280;2097;51.104;7.150;2023-02-22T03:03:27;98599.81;;;4.62;100.00
4167;BME280;2097;51.104;7.150;2023-02-22T03:06:12;98597.25;;;4.62;100.00
4167;BME280;2097;51.104;7.150;2023-02-22T03:08:49;98606.66;;;4.61;100.00
4167;BME280;2097;51.104;7.150;2023-02-22T03:11:20;98516.06;;;4.12;100.00
4167;BME280;2097;51.104;7.150;2023-02-22T03:13:52;98558.69;;;4.39;100.00
4167;BME280;2097;51.104;7.150;2023-02-22T03:16:29;98575.56;;;4.46;100.00
4167;BME280;2097;51.104;7.150;2023-02-22T03:19:05;98363.13;;;3.17;100.00
4167;BME280;2097;51.104;7.150;2023-02-22T03:21:40;98437.56;;;3.61;100.00
4167;BME280;2097;51.104;7.150;2023-02-22T03:24:15;98586.69;;;4.47;100.00
4167;BME280;2097;51.104;7.150;2023-02-22T03:26:48;98215.63;;;2.15;100.00
4167;BME280;2097;51.104;7.150;2023-02-22T03:29:19;98590.88;;;4.49;100.00
4167;BME280;2097;51.104;7.150;2023-02-22T03:31:50;98589.94;;;4.51;100.00
4167;BME280;2097;51.104;7.150;2023-02-22T03:34:22;98501.25;;;3.97;100.00
4167;BME280;2097;51.104;7.150;2023-02-22T03:36:55;98595.06;;;4.51;100.00
4167;BME280;2097;51.104;7.150;2023-02-22T03:39:25;98483.09;;;3.79;100.00
4167;BME280;2097;51.104;7.150;2023-02-22T03:41:57;98491.19;;;3.91;100.00
4167;BME280;2097;51.104;7.150;2023-02-22T03:44:28;98585.13;;;4.43;100.00
4167;BME280;2097;51.104;7.150;2023-02-22T03:46:59;98404.03;;;3.20;100.00
4167;BME280;2097;51.104;7.150;2023-02-22T03:49:32;98585.16;;;4.41;100.00
4167;BME280;2097;51.104;7.150;2023-02-22T03:52:02;98586.84;;;4.42;100.00
4167;BME280;2097;51.104;7.150;2023-02-22T03:54:30;98471.41;;;3.70;100.00
4167;BME280;2097;51.104;7.150;2023-02-22T03:57:07;98587.59;;;4.46;100.00
4167;BME280;2097;51.104;7.150;2023-02-22T03:59:35;98511.34;;;4.02;100.00
4167;BME280;2097;51.104;7.150;2023-02-22T04:02:02;98583.34;;;4.45;100.00
4167;BME280;2097;51.104;7.150;2023-02-22T04:04:30;98591.97;;;4.42;100.00
4167;BME280;2097;51.104;7.150;2023-02-22T04:06:57;98461.50;;;3.61;100.00
4167;BME280;2097;51.104;7.150;2023-02-22T04:09:24;98588.59;;;4.42;100.00
4167;BME280;2097;51.104;7.150;2023-02-22T04:11:51;98471.31;;;3.73;100.00
4167;BME280;2097;51.104;7.150;2023-02-22T04:14:17;98590.94;;;4.47;100.00
4167;BME280;2097;51.104;7.150;2023-02-22T04:16:44;98377.13;;;3.31;100.00
4167;BME280;2097;51.104;7.150;2023-02-22T04:19:11;98603.59;;;4.52;100.00
4167;BME280;2097;51.104;7.150;2023-02-22T04:21:40;98279.56;;;2.65;100.00
4167;BME280;2097;51.104;7.150;2023-02-22T04:24:06;98322.06;;;2.94;100.00
4167;BME280;2097;51.104;7.150;2023-02-22T04:26:33;98600.94;;;4.55;100.00
4167;BME280;2097;51.104;7.150;2023-02-22T04:29:00;98583.72;;;4.57;100.00
4167;BME280;2097;51.104;7.150;2023-02-22T04:31:28;98581.03;;;4.60;100.00
4167;BME280;2097;51.104;7.150;2023-02-22T04:33:55;98546.16;;;4.32;100.00
4167;BME280;2097;51.104;7.150;2023-02-22T04:36:22;98330.41;;;3.00;100.00
4167;BME280;2097;51.104;7.150;2023-02-22T04:38:50;98577.50;;;4.62;100.00
4167;BME280;2097;51.104;7.150;2023-02-22T04:41:19;98578.47;;;4.60;100.00
4167;BME280;2097;51.104;7.150;2023-02-22T04:43:49;98578.59;;;4.57;100.00
4167;BME280;2097;51.104;7.150;2023-02-22T04:46:16;98571.88;;;4.53;100.00
4167;BME280;2097;51.104;7.150;2023-02-22T04:48:42;98567.59;;;4.53;100.00
4167;BME280;2097;51.104;7.150;2023-02-22T04:51:09;98567.63;;;4.52;100.00
4167;BME280;2097;51.104;7.150;2023-02-22T04:53:36;98576.97;;;4.54;100.00
4167;BME280;2097;51.104;7.150;2023-02-22T04:56:05;98566.63;;;4.56;100.00
4167;BME280;2097;51.104;7.150;2023-02-22T04:58:32;98570.81;;;4.58;100.00
4167;BME280;2097;51.104;7.150;2023-02-22T05:00:59;98571.66;;;4.59;100.00
4167;BME280;2097;51.104;7.150;2023-02-22T05:03:27;98563.94;;;4.59;100.00
4167;BME280;2097;51.104;7.150;2023-02-22T05:05:54;98566.56;;;4.57;100.00
4167;BME280;2097;51.104;7.150;2023-02-22T05:08:21;98565.84;;;4.54;100.00
4167;BME280;2097;51.104;7.150;2023-02-22T05:10:48;98467.63;;;4.03;100.00
4167;BME280;2097;51.104;7.150;2023-02-22T05:13:16;98564.00;;;4.57;100.00
4167;BME280;2097;51.104;7.150;2023-02-22T05:15:43;98563.88;;;4.60;100.00
4167;BME280;2097;51.104;7.150;2023-02-22T05:18:10;98253.56;;;2.76;100.00
4167;BME280;2097;51.104;7.150;2023-02-22T05:20:37;97956.75;;;0.87;100.00
4167;BME280;2097;51.104;7.150;2023-02-22T05:23:03;98416.38;;;3.56;100.00
4167;BME280;2097;51.104;7.150;2023-02-22T05:25:31;98489.16;;;4.22;100.00
4167;BME280;2097;51.104;7.150;2023-02-22T05:27:59;98395.47;;;3.66;100.00
4167;BME280;2097;51.104;7.150;2023-02-22T05:30:30;98555.25;;;4.63;100.00
4167;BME280;2097;51.104;7.150;2023-02-22T05:32:58;98356.22;;;3.41;100.00
4167;BME280;2097;51.104;7.150;2023-02-22T05:35:25;98558.84;;;4.57;100.00
4167;BME280;2097;51.104;7.150;2023-02-22T05:37:52;98299.56;;;3.03;100.00
4167;BME280;2097;51.104;7.150;2023-02-22T05:40:20;98546.38;;;4.48;100.00
4167;BME280;2097;51.104;7.150;2023-02-22T05:42:48;98549.06;;;4.46;100.00
4167;BME280;2097;51.104;7.150;2023-02-22T05:45:18;98547.50;;;4.42;100.00
4167;BME280;2097;51.104;7.150;2023-02-22T05:47:46;98475.84;;;3.90;100.00
4167;BME280;2097;51.104;7.150;2023-02-22T05:50:14;98432.34;;;3.64;100.00
4167;BME280;2097;51.104;7.150;2023-02-22T05:52:41;98541.69;;;4.37;100.00
4167;BME280;2097;51.104;7.150;2023-02-22T05:55:09;98390.22;;;3.46;100.00
4167;BME280;2097;51.104;7.150;2023-02-22T05:57:36;98305.81;;;2.95;100.00
4167;BME280;2097;51.104;7.150;2023-02-22T06:00:04;98544.31;;;4.35;100.00
4167;BME280;2097;51.104;7.150;2023-02-22T06:02:32;98148.63;;;2.04;100.00
4167;BME280;2097;51.104;7.150;2023-02-22T06:05:01;98550.22;;;4.37;100.00
4167;BME280;2097;51.104;7.150;2023-02-22T06:07:28;98542.41;;;4.40;100.00
4167;BME280;2097;51.104;7.150;2023-02-22T06:09:54;97931.97;;;0.90;100.00
4167;BME280;2097;51.104;7.150;2023-02-22T06:12:22;98531.78;;;4.49;100.00
4167;BME280;2097;51.104;7.150;2023-02-22T06:14:53;97572.81;;;-1.21;100.00
4167;BME280;2097;51.104;7.150;2023-02-22T06:17:20;98177.88;;;2.44;100.00
4167;BME280;2097;51.104;7.150;2023-02-22T06:19:47;97693.84;;;-0.60;100.00
4167;BME280;2097;51.104;7.150;2023-02-22T06:22:17;97965.94;;;1.16;100.00
4167;BME280;2097;51.104;7.150;2023-02-22T06:24:45;97802.00;;;0.09;100.00
4167;BME280;2097;51.104;7.150;2023-02-22T06:27:17;98248.28;;;2.80;100.00
4167;BME280;2097;51.104;7.150;2023-02-22T06:29:46;98545.13;;;4.58;100.00
4167;BME280;2097;51.104;7.150;2023-02-22T06:32:15;98556.25;;;4.59;100.00
4167;BME280;2097;51.104;7.150;2023-02-22T06:34:42;98547.75;;;4.57;100.00
4167;BME280;2097;51.104;7.150;2023-02-22T06:37:11;98454.94;;;4.00;100.00
4167;BME280;2097;51.104;7.150;2023-02-22T06:39:43;98465.03;;;4.05;100.00
4167;BME280;2097;51.104;7.150;2023-02-22T06:42:15;98446.00;;;3.87;100.00
4167;BME280;2097;51.104;7.150;2023-02-22T06:44:42;98502.69;;;4.27;100.00
4167;BME280;2097;51.104;7.150;2023-02-22T06:47:09;98546.09;;;4.56;100.00
4167;BME280;2097;51.104;7.150;2023-02-22T06:49:36;98539.16;;;4.58;100.00
4167;BME280;2097;51.104;7.150;2023-02-22T06:52:04;98417.78;;;3.87;100.00
4167;BME280;2097;51.104;7.150;2023-02-22T06:54:31;98499.59;;;4.41;100.00
4167;BME280;2097;51.104;7.150;2023-02-22T06:57:00;98544.72;;;4.69;100.00
4167;BME280;2097;51.104;7.150;2023-02-22T06:59:26;98547.13;;;4.73;100.00
4167;BME280;2097;51.104;7.150;2023-02-22T07:01:53;98535.84;;;4.76;100.00
4167;BME280;2097;51.104;7.150;2023-02-22T07:04:21;98538.19;;;4.82;100.00
4167;BME280;2097;51.104;7.150;2023-02-22T07:06:49;98472.78;;;4.47;100.00
4167;BME280;2097;51.104;7.150;2023-02-22T07:09:17;98534.38;;;4.92;100.00
4167;BME280;2097;51.104;7.150;2023-02-22T07:11:44;98539.28;;;4.98;100.00
4167;BME280;2097;51.104;7.150;2023-02-22T07:14:12;98550.28;;;5.01;100.00
4167;BME280;2097;51.104;7.150;2023-02-22T07:16:41;98539.03;;;5.04;100.00
4167;BME280;2097;51.104;7.150;2023-02-22T07:19:08;98536.28;;;5.08;100.00
4167;BME280;2097;51.104;7.150;2023-02-22T07:21:35;98363.16;;;4.05;100.00
4167;BME280;2097;51.104;7.150;2023-02-22T07:24:02;98533.22;;;5.20;100.00
4167;BME280;2097;51.104;7.150;2023-02-22T07:26:29;98544.09;;;5.27;100.00
4167;BME280;2097;51.104;7.150;2023-02-22T07:28:55;98535.28;;;5.32;100.00
4167;BME280;2097;51.104;7.150;2023-02-22T07:31:24;98532.41;;;5.40;100.00
4167;BME280;2097;51.104;7.150;2023-02-22T07:33:51;98530.50;;;5.45;100.00
4167;BME280;2097;51.104;7.150;2023-02-22T07:36:17;98526.81;;;5.50;100.00
4167;BME280;2097;51.104;7.150;2023-02-22T07:38:44;98323.81;;;4.26;100.00
4167;BME280;2097;51.104;7.150;2023-02-22T07:41:11;98492.16;;;5.39;100.00
4167;BME280;2097;51.104;7.150;2023-02-22T07:43:38;98526.91;;;5.67;100.00
4167;BME280;2097;51.104;7.150;2023-02-22T07:46:05;98527.53;;;5.73;100.00
4167;BME280;2097;51.104;7.150;2023-02-22T07:48:33;98446.28;;;5.28;100.00
4167;BME280;2097;51.104;7.150;2023-02-22T07:51:00;98468.56;;;5.48;100.00
4167;BME280;2097;51.104;7.150;2023-02-22T07:53:29;98530.16;;;5.92;100.00
4167;BME280;2097;51.104;7.150;2023-02-22T07:55:56;98528.16;;;5.98;100.00
4167;BME280;2097;51.104;7.150;2023-02-22T07:58:25;98482.00;;;5.74;100.00
4167;BME280;2097;51.104;7.150;2023-02-22T08:00:52;98523.16;;;6.14;100.00
4167;BME280;2097;51.104;7.150;2023-02-22T08:03:23;98528.88;;;6.20;100.00
4167;BME280;2097;51.104;7.150;2023-02-22T08:05:54;97983.84;;;2.95;100.00
4167;BME280;2097;51.104;7.150;2023-02-22T08:08:21;98512.72;;;6.35;100.00
4167;BME280;2097;51.104;7.150;2023-02-22T08:10:48;98517.47;;;6.44;100.00
4167;BME280;2097;51.104;7.150;2023-02-22T08:13:15;98523.13;;;6.52;100.00
4167;BME280;2097;51.104;7.150;2023-02-22T08:15:42;97986.75;;;3.28;100.00
4167;BME280;2097;51.104;7.150;2023-02-22T08:18:13;98469.16;;;6.31;100.00
4167;BME280;2097;51.104;7.150;2023-02-22T08:20:42;98285.31;;;5.43;100.00
4167;BME280;2097;51.104;7.150;2023-02-22T08:23:13;98500.97;;;6.83;100.00
4167;BME280;2097;51.104;7.150;2023-02-22T08:25:41;98506.69;;;6.90;100.00
4167;BME280;2097;51.104;7.150;2023-02-22T08:28:09;98505.56;;;6.95;100.00
4167;BME280;2097;51.104;7.150;2023-02-22T08:30:38;98502.59;;;7.03;100.00
4167;BME280;2097;51.104;7.150;2023-02-22T08:33:07;98501.50;;;7.08;100.00
4167;BME280;2097;51.104;7.150;2023-02-22T08:35:35;98457.00;;;6.86;100.00
4167;BME280;2097;51.104;7.150;2023-02-22T08:38:04;98505.22;;;7.20;100.00
4167;BME280;2097;51.104;7.150;2023-02-22T08:40:35;98504.91;;;7.26;100.00
4167;BME280;2097;51.104;7.150;2023-02-22T08:43:02;98504.59;;;7.32;100.00
4167;BME280;2097;51.104;7.150;2023-02-22T08:45:29;98504.09;;;7.42;100.00
4167;BME280;2097;51.104;7.150;2023-02-22T08:47:56;98448.13;;;7.09;100.00
4167;BME280;2097;51.104;7.150;2023-02-22T08:50:25;98434.94;;;7.15;100.00
4167;BME280;2097;51.104;7.150;2023-02-22T08:52:53;98501.28;;;7.64;100.00
4167;BME280;2097;51.104;7.150;2023-02-22T08:55:21;98492.13;;;7.74;100.00
4167;BME280;2097;51.104;7.150;2023-02-22T08:57:49;98484.81;;;7.82;100.00
4167;BME280;2097;51.104;7.150;2023-02-22T09:00:17;98497.31;;;7.89;100.00
4167;BME280;2097;51.104;7.150;2023-02-22T09:02:44;98490.88;;;7.97;100.00
4167;BME280;2097;51.104;7.150;2023-02-22T09:05:11;98361.06;;;7.29;100.00
4167;BME280;2097;51.104;7.150;2023-02-22T09:07:40;98455.19;;;7.88;100.00
4167;BME280;2097;51.104;7.150;2023-02-22T09:10:07;98493.09;;;8.20;100.00
4167;BME280;2097;51.104;7.150;2023-02-22T09:12:34;98474.25;;;8.18;100.00
4167;BME280;2097;51.104;7.150;2023-02-22T09:15:03;98484.59;;;8.34;100.00
4167;BME280;2097;51.104;7.150;2023-02-22T09:17:30;98048.06;;;5.70;100.00
4167;BME280;2097;51.104;7.150;2023-02-22T09:19:56;98471.25;;;8.41;100.00
4167;BME280;2097;51.104;7.150;2023-02-22T09:22:23;98471.63;;;8.51;100.00
4167;BME280;2097;51.104;7.150;2023-02-22T09:24:51;98467.94;;;8.55;100.00
4167;BME280;2097;51.104;7.150;2023-02-22T09:27:18;98475.28;;;8.62;100.00
4167;BME280;2097;51.104;7.150;2023-02-22T09:29:47;98424.25;;;8.35;100.00
4167;BME280;2097;51.104;7.150;2023-02-22T09:32:15;98342.59;;;8.00;100.00
4167;BME280;2097;51.104;7.150;2023-02-22T09:34:43;98191.66;;;7.13;100.00
4167;BME280;2097;51.104;7.150;2023-02-22T09:37:10;98215.38;;;7.35;100.00
4167;BME280;2097;51.104;7.150;2023-02-22T09:39:37;98306.69;;;7.95;100.00
4167;BME280;2097;51.104;7.150;2023-02-22T09:42:09;98459.53;;;8.96;100.00
4167;BME280;2097;51.104;7.150;2023-02-22T09:44:42;98464.44;;;9.01;100.00
4167;BME280;2097;51.104;7.150;2023-02-22T09:47:17;98347.16;;;8.41;100.00
4167;BME280;2097;51.104;7.150;2023-02-22T09:49:53;98375.22;;;8.63;100.00
4167;BME280;2097;51.104;7.150;2023-02-22T09:52:25;98465.09;;;9.19;100.00
4167;BME280;2097;51.104;7.150;2023-02-22T09:55:06;98369.53;;;8.72;100.00
4167;BME280;2097;51.104;7.150;2023-02-22T09:57:36;98460.03;;;9.32;100.00
4167;BME280;2097;51.104;7.150;2023-02-22T10:00:12;98460.59;;;9.37;100.00
4167;BME280;2097;51.104;7.150;2023-02-22T10:02:49;98354.50;;;8.78;100.00
4167;BME280;2097;51.104;7.150;2023-02-22T10:05:20;98383.59;;;9.11;100.00
4167;BME280;2097;51.104;7.150;2023-02-22T10:07:54;98366.69;;;9.05;100.00
4167;BME280;2097;51.104;7.150;2023-02-22T10:10:27;98362.81;;;9.12;100.00
4167;BME280;2097;51.104;7.150;2023-02-22T10:13:00;98464.44;;;9.73;100.00
4167;BME280;2097;51.104;7.150;2023-02-22T10:15:45;98465.66;;;9.82;100.00
4167;BME280;2097;51.104;7.150;2023-02-22T10:18:47;98460.84;;;9.90;100.00
4167;BME280;2097;51.104;7.150;2023-02-22T10:21:26;98463.66;;;10.01;100.00
4167;BME280;2097;51.104;7.150;2023-02-22T10:24:03;98459.66;;;10.09;100.00
4167;BME280;2097;51.104;7.150;2023-02-22T10:26:35;98465.22;;;10.17;100.00
4167;BME280;2097;51.104;7.150;2023-02-22T10:29:09;98411.88;;;9.85;100.00
4167;BME280;2097;51.104;7.150;2023-02-22T10:31:41;98465.66;;;10.23;100.00
4167;BME280;2097;51.104;7.150;2023-02-22T10:34:14;98033.91;;;7.64;100.00
4167;BME280;2097;51.104;7.150;2023-02-22T10:36:42;98460.47;;;10.23;100.00
4167;BME280;2097;51.104;7.150;2023-02-22T10:39:29;98453.25;;;10.28;100.00
4167;BME280;2097;51.104;7.150;2023-02-22T10:42:00;98336.66;;;9.59;100.00
4167;BME280;2097;51.104;7.150;2023-02-22T10:44:31;98361.72;;;9.86;100.00
4167;BME280;2097;51.104;7.150;2023-02-22T10:46:58;98454.34;;;10.52;100.00
4167;BME280;2097;51.104;7.150;2023-02-22T10:49:30;98451.13;;;10.61;100.00
4167;BME280;2097;51.104;7.150;2023-02-22T10:52:02;98451.59;;;10.68;100.00
4167;BME280;2097;51.104;7.150;2023-02-22T10:54:31;98405.44;;;10.46;100.00
4167;BME280;2097;51.104;7.150;2023-02-22T10:57:00;98420.41;;;10.55;100.00
4167;BME280;2097;51.104;7.150;2023-02-22T10:59:31;98440.63;;;10.77;100.00
4167;BME280;2097;51.104;7.150;2023-02-22T11:01:59;98446.25;;;10.83;100.00
4167;BME280;2097;51.104;7.150;2023-02-22T11:04:43;98433.31;;;10.96;100.00
4167;BME280;2097;51.104;7.150;2023-02-22T11:07:22;98437.63;;;11.09;100.00
4167;BME280;2097;51.104;7.150;2023-02-22T11:09:52;98429.75;;;11.23;100.00
4167;BME280;2097;51.104;7.150;2023-02-22T11:12:25;98435.69;;;11.37;100.00
4167;BME280;2097;51.104;7.150;2023-02-22T11:14:56;98434.97;;;11.48;100.00
4167;BME280;2097;51.104;7.150;2023-02-22T11:17:28;98407.41;;;11.33;100.00
4167;BME280;2097;51.104;7.150;2023-02-22T11:19:57;98430.47;;;11.64;100.00
4167;BME280;2097;51.104;7.150;2023-02-22T11:22:26;98427.41;;;11.70;100.00
4167;BME280;2097;51.104;7.150;2023-02-22T11:24:58;98373.97;;;11.41;100.00
4167;BME280;2097;51.104;7.150;2023-02-22T11:27:33;98425.44;;;11.86;100.00
4167;BME280;2097;51.104;7.150;2023-02-22T11:32:58;98354.16;;;11.65;100.00
4167;BME280;2097;51.104;7.150;2023-02-22T11:35:34;98426.34;;;12.10;100.00
4167;BME280;2097;51.104;7.150;2023-02-22T11:38:16;98329.59;;;11.69;100.00
4167;BME280;2097;51.104;7.150;2023-02-22T11:40:46;98413.94;;;12.26;100.00
4167;BME280;2097;51.104;7.150;2023-02-22T11:43:16;98410.19;;;12.30;100.00
4167;BME280;2097;51.104;7.150;2023-02-22T11:45:57;98411.44;;;12.37;100.00
4167;BME280;2097;51.104;7.150;2023-02-22T11:48:28;98333.03;;;12.05;100.00
4167;BME280;2097;51.104;7.150;2023-02-22T11:51:06;98403.56;;;12.49;100.00
4167;BME280;2097;51.104;7.150;2023-02-22T11:56:39;98403.19;;;12.66;100.00
4167;BME280;2097;51.104;7.150;2023-02-22T11:59:18;98392.81;;;12.77;100.00
4167;BME280;2097;51.104;7.150;2023-02-22T12:01:51;98398.31;;;12.85;100.00
4167;BME280;2097;51.104;7.150;2023-02-22T12:04:38;98397.78;;;12.92;100.00
4167;BME280;2097;51.104;7.150;2023-02-22T12:07:27;98399.38;;;13.06;99.46
4167;BME280;2097;51.104;7.150;2023-02-22T12:10:05;98395.25;;;13.14;98.17
4167;BME280;2097;51.104;7.150;2023-02-22T12:12:45;98300.19;;;12.62;97.73
4167;BME280;2097;51.104;7.150;2023-02-22T12:15:23;98261.44;;;12.70;97.18
4167;BME280;2097;51.104;7.150;2023-02-22T12:18:01;98374.13;;;13.52;96.24
4167;BME280;2097;51.104;7.150;2023-02-22T12:20:36;98388.34;;;13.48;95.36
4167;BME280;2097;51.104;7.150;2023-02-22T12:23:14;98377.66;;;13.40;95.06
4167;BME280;2097;51.104;7.150;2023-02-22T12:25:53;98377.31;;;13.44;94.77
4167;BME280;2097;51.104;7.150;2023-02-22T12:28:29;98326.56;;;13.26;94.46
4167;BME280;2097;51.104;7.150;2023-02-22T12:31:06;98373.06;;;13.54;93.33
4167;BME280;2097;51.104;7.150;2023-02-22T12:33:44;98366.19;;;13.53;92.78
4167;BME280;2097;51.104;7.150;2023-02-22T12:36:15;98372.00;;;13.57;92.50
4167;BME280;2097;51.104;7.150;2023-02-22T12:38:51;98378.28;;;13.65;92.00
4167;BME280;2097;51.104;7.150;2023-02-22T12:41:25;98380.19;;;13.74;91.99
4167;BME280;2097;51.104;7.150;2023-02-22T12:43:59;98370.97;;;13.81;91.38
4167;BME280;2097;51.104;7.150;2023-02-22T12:46:30;98370.69;;;13.84;90.99
4167;BME280;2097;51.104;7.150;2023-02-22T12:49:08;98376.38;;;13.89;90.14
4167;BME280;2097;51.104;7.150;2023-02-22T12:51:43;98293.78;;;13.46;89.42
4167;BME280;2097;51.104;7.150;2023-02-22T12:54:20;98330.41;;;13.66;89.11
4167;BME280;2097;51.104;7.150;2023-02-22T12:56:52;98375.91;;;14.06;89.38
4167;BME280;2097;51.104;7.150;2023-02-22T12:59:25;98292.13;;;13.56;88.95
4167;BME280;2097;51.104;7.150;2023-02-22T13:01:58;98341.75;;;13.87;88.58
4167;BME280;2097;51.104;7.150;2023-02-22T13:04:27;98383.06;;;14.15;88.66
4167;BME280;2097;51.104;7.150;2023-02-22T13:07:04;98380.31;;;14.16;88.49
4167;BME280;2097;51.104;7.150;2023-02-22T13:09:56;98336.44;;;13.88;87.31
4167;BME280;2097;51.104;7.150;2023-02-22T13:12:33;98378.16;;;14.10;87.07
4167;BME280;2097;51.104;7.150;2023-02-22T13:15:06;98380.91;;;14.09;86.71
4167;BME280;2097;51.104;7.150;2023-02-22T13:17:40;98004.38;;;11.84;86.30
4167;BME280;2097;51.104;7.150;2023-02-22T13:20:16;98376.50;;;14.09;86.44
4167;BME280;2097;51.104;7.150;2023-02-22T13:22:49;98372.63;;;14.15;86.58
4167;BME280;2097;51.104;7.150;2023-02-22T13:25:22;98369.06;;;14.16;86.33
4167;BME280;2097;51.104;7.150;2023-02-22T13:27:54;98251.00;;;13.37;86.17
4167;BME280;2097;51.104;7.150;2023-02-22T13:30:36;98371.03;;;14.12;86.29
4167;BME280;2097;51.104;7.150;2023-02-22T13:33:20;98315.94;;;13.73;86.17
4167;BME280;2097;51.104;7.150;2023-02-22T13:36:16;98316.19;;;13.70;86.23
4167;BME280;2097;51.104;7.150;2023-02-22T13:39:20;98321.63;;;13.78;86.14
4167;BME280;2097;51.104;7.150;2023-02-22T13:42:03;98376.97;;;14.03;86.38
4167;BME280;2097;51.104;7.150;2023-02-22T13:48:04;98365.97;;;14.00;86.21
4167;BME280;2097;51.104;7.150;2023-02-22T13:50:57;98316.66;;;13.64;85.43
4167;BME280;2097;51.104;7.150;2023-02-22T13:53:35;98366.91;;;13.88;85.41
4167;BME280;2097;51.104;7.150;2023-02-22T13:56:08;98325.91;;;13.46;85.09